Aeropuerto de La Coruña, España

3:53 AM CEST en Septiembre 02, 2014 (GMT +0200)
Perillo | Change Station
CLOSE
Current Station
Estación meteorológica personal
Location: Oleiros, GALICIA
Altura: 213 ft
Estaciones meteorológicas cercanas
Aviso en curso: Extreme high temperature

Alt 213 ft 43.34 °N, 8.37 °W | Updated 7 minutes ago

Clear
Despejado
66.2 ° F
Sensación térmica 66.2 ° F
N
0.0
Viento Variable Viento desde Norte
Gusts 0.0 mph

Hoy
Alta -- | Baja -- ° F
--% Posibilidad de precipitaciones
Ayer
Alta -- | Baja -- ° F
Precip. -- pul
7:58 AM 9:07 PM
Creciente, 46% visible
Presión 29.98 pul
Visibilidad -9999.0 Millas
Nubes
Punto de rocío 64 ° F
Humedad 94%
Precipitaciones 0.00 pul
Espesor de la nieve No disponible.
UV No disponible.
Polen No disponible.
Calidad del aire No disponible.
Flu Activity No disponible.
METAR LEST 020130Z 10003KT 080V140 CAVOK 19/16 Q1015 NOSIG

More Conditions Fewer Conditions

Presión 29.98 pul
Visibilidad -9999.0 Millas
Nubes
Punto de rocío 64 ° F
Humedad 94%
Precipitaciones 0.00 pul
Espesor de la nieve No disponible.
UV No disponible.
Polen No disponible.
Calidad del aire No disponible.
Flu Activity No disponible.
METAR LEST 020130Z 10003KT 080V140 CAVOK 19/16 Q1015 NOSIG

More Conditions Fewer Conditions

10-Day Weather Forecast

Almanac

Astronomía

Sep. 02, 2014 Salida Puesta
Hora real 7:58 AM CEST 9:07 PM CEST
Crepúsculo civil 7:29 AM CEST 9:36 PM CEST
Crepúsculo náutico 6:53 AM CEST 10:11 PM CEST
Crepúsculo astronómico 6:17 AM CEST 10:48 PM CEST
Luna 3:41 PM CEST 12:47 AM CEST
Horas de luz 14h 07m
Horas de luz
13h 08m
Tomorrow will be 2m 51s shorter.
Creciente, 46% of the Moon is Illuminated
Sep 1
Creciente
Sep 2
Cuarto creciente
Sep 8
Luna llena
Sep 15
Cuarto menguante
Sep 24
Nueva

Extremos de ayer

Máximos del país Bajas del país

Community

WunderPhotos

Upload Photos

1,749,476 ¡fotos cargadas!

Nearby

Calidad del aire

Not available.

Grosos de nieve

Not available.

Actividad de terremotos

Ciudad Distance Mag. Tiempo y dato
No hay informes recientes de la actividad sísmica.
Magnitud mínima muestra es 2,5.

Temperaturas de aguas costeras

Lugar Temperatura
Sin partes meteorológicos de las estaciones

Estaciones meteorológicas cercanas